sensor_id;sensor_type;location;lat;lon;timestamp;temperature;humidity
31809;DHT22;18379;48.208;-1.518;2023-04-03T00:03:54;5.90;99.90
31809;DHT22;18379;48.208;-1.518;2023-04-03T00:09:01;5.90;99.90
31809;DHT22;18379;48.208;-1.518;2023-04-03T00:14:03;5.80;99.90
31809;DHT22;18379;48.208;-1.518;2023-04-03T00:19:04;5.80;99.90
31809;DHT22;18379;48.208;-1.518;2023-04-03T00:24:06;5.70;99.90
31809;DHT22;18379;48.208;-1.518;2023-04-03T00:29:07;5.60;99.90
31809;DHT22;18379;48.208;-1.518;2023-04-03T00:34:07;5.60;99.90
31809;DHT22;18379;48.208;-1.518;2023-04-03T00:39:08;5.50;99.90
31809;DHT22;18379;48.208;-1.518;2023-04-03T00:45:21;5.50;99.90
31809;DHT22;18379;48.208;-1.518;2023-04-03T00:49:44;5.40;99.90
31809;DHT22;18379;48.208;-1.518;2023-04-03T00:54:50;5.30;99.90
31809;DHT22;18379;48.208;-1.518;2023-04-03T00:59:56;5.30;99.90
31809;DHT22;18379;48.208;-1.518;2023-04-03T01:04:58;5.30;99.90
31809;DHT22;18379;48.208;-1.518;2023-04-03T01:10:01;5.20;99.90
31809;DHT22;18379;48.208;-1.518;2023-04-03T01:15:09;5.20;99.90
31809;DHT22;18379;48.208;-1.518;2023-04-03T01:25:30;5.10;99.90
31809;DHT22;18379;48.208;-1.518;2023-04-03T01:30:35;5.10;99.90
31809;DHT22;18379;48.208;-1.518;2023-04-03T01:35:37;5.10;99.90
31809;DHT22;18379;48.208;-1.518;2023-04-03T01:40:38;5.10;99.90
31809;DHT22;18379;48.208;-1.518;2023-04-03T01:45:39;5.10;99.90
31809;DHT22;18379;48.208;-1.518;2023-04-03T01:50:39;5.10;99.90
31809;DHT22;18379;48.208;-1.518;2023-04-03T01:55:40;5.00;99.90
31809;DHT22;18379;48.208;-1.518;2023-04-03T02:00:41;5.10;99.90
31809;DHT22;18379;48.208;-1.518;2023-04-03T02:05:42;5.10;99.90
31809;DHT22;18379;48.208;-1.518;2023-04-03T02:10:43;5.00;99.90
31809;DHT22;18379;48.208;-1.518;2023-04-03T02:15:44;4.90;99.90
31809;DHT22;18379;48.208;-1.518;2023-04-03T02:20:47;4.90;99.90
31809;DHT22;18379;48.208;-1.518;2023-04-03T02:25:49;4.80;99.90
31809;DHT22;18379;48.208;-1.518;2023-04-03T02:30:49;4.80;99.90
31809;DHT22;18379;48.208;-1.518;2023-04-03T02:35:57;4.80;99.90
31809;DHT22;18379;48.208;-1.518;2023-04-03T02:41:08;4.90;99.90
31809;DHT22;18379;48.208;-1.518;2023-04-03T02:46:09;4.80;99.90
31809;DHT22;18379;48.208;-1.518;2023-04-03T02:51:10;4.80;99.90
31809;DHT22;18379;48.208;-1.518;2023-04-03T02:56:11;4.70;99.90
31809;DHT22;18379;48.208;-1.518;2023-04-03T03:01:12;4.70;99.90
31809;DHT22;18379;48.208;-1.518;2023-04-03T03:06:15;4.70;99.90
31809;DHT22;18379;48.208;-1.518;2023-04-03T03:11:17;4.70;99.90
31809;DHT22;18379;48.208;-1.518;2023-04-03T03:16:18;4.60;99.90
31809;DHT22;18379;48.208;-1.518;2023-04-03T03:21:18;4.50;99.90
31809;DHT22;18379;48.208;-1.518;2023-04-03T03:26:19;4.40;99.90
31809;DHT22;18379;48.208;-1.518;2023-04-03T03:31:20;4.20;99.90
31809;DHT22;18379;48.208;-1.518;2023-04-03T03:36:21;4.10;99.90
31809;DHT22;18379;48.208;-1.518;2023-04-03T03:41:22;4.00;99.90
31809;DHT22;18379;48.208;-1.518;2023-04-03T03:46:23;4.00;99.90
31809;DHT22;18379;48.208;-1.518;2023-04-03T03:51:24;4.00;99.90
31809;DHT22;18379;48.208;-1.518;2023-04-03T03:56:24;3.90;99.90
31809;DHT22;18379;48.208;-1.518;2023-04-03T04:01:25;3.90;99.90
31809;DHT22;18379;48.208;-1.518;2023-04-03T04:06:26;3.80;99.90
31809;DHT22;18379;48.208;-1.518;2023-04-03T04:11:27;3.70;99.90
31809;DHT22;18379;48.208;-1.518;2023-04-03T04:16:28;3.60;99.90
31809;DHT22;18379;48.208;-1.518;2023-04-03T04:21:29;3.50;99.90
31809;DHT22;18379;48.208;-1.518;2023-04-03T04:26:29;3.40;99.90
31809;DHT22;18379;48.208;-1.518;2023-04-03T04:31:30;3.20;99.90
31809;DHT22;18379;48.208;-1.518;2023-04-03T04:36:31;3.20;99.90
31809;DHT22;18379;48.208;-1.518;2023-04-03T04:41:32;3.20;99.90
31809;DHT22;18379;48.208;-1.518;2023-04-03T04:46:33;3.30;99.90
31809;DHT22;18379;48.208;-1.518;2023-04-03T04:51:34;3.30;99.90
31809;DHT22;18379;48.208;-1.518;2023-04-03T04:56:35;3.30;99.90
31809;DHT22;18379;48.208;-1.518;2023-04-03T05:01:35;3.30;99.90
31809;DHT22;18379;48.208;-1.518;2023-04-03T05:06:36;3.40;99.90
31809;DHT22;18379;48.208;-1.518;2023-04-03T05:11:37;3.40;99.90
31809;DHT22;18379;48.208;-1.518;2023-04-03T05:16:38;3.50;99.90
31809;DHT22;18379;48.208;-1.518;2023-04-03T05:21:39;3.60;99.90
31809;DHT22;18379;48.208;-1.518;2023-04-03T05:26:40;3.90;99.90
31809;DHT22;18379;48.208;-1.518;2023-04-03T05:31:41;3.90;99.90
31809;DHT22;18379;48.208;-1.518;2023-04-03T05:36:42;4.00;99.90
31809;DHT22;18379;48.208;-1.518;2023-04-03T05:41:43;4.10;99.90
31809;DHT22;18379;48.208;-1.518;2023-04-03T05:46:44;4.30;99.90
31809;DHT22;18379;48.208;-1.518;2023-04-03T05:51:45;4.20;99.90
31809;DHT22;18379;48.208;-1.518;2023-04-03T05:56:46;4.20;99.90
31809;DHT22;18379;48.208;-1.518;2023-04-03T06:01:47;4.30;99.90
31809;DHT22;18379;48.208;-1.518;2023-04-03T06:06:51;4.10;99.90
31809;DHT22;18379;48.208;-1.518;2023-04-03T06:11:52;4.10;99.90
31809;DHT22;18379;48.208;-1.518;2023-04-03T06:16:54;4.20;99.90
31809;DHT22;18379;48.208;-1.518;2023-04-03T06:21:55;4.30;99.90
31809;DHT22;18379;48.208;-1.518;2023-04-03T06:26:56;4.40;99.90
31809;DHT22;18379;48.208;-1.518;2023-04-03T06:31:57;4.50;99.90
31809;DHT22;18379;48.208;-1.518;2023-04-03T06:36:58;4.40;99.90
31809;DHT22;18379;48.208;-1.518;2023-04-03T06:41:59;4.50;99.90
31809;DHT22;18379;48.208;-1.518;2023-04-03T06:47:01;4.50;99.90
31809;DHT22;18379;48.208;-1.518;2023-04-03T06:52:02;4.50;99.90
31809;DHT22;18379;48.208;-1.518;2023-04-03T06:57:02;4.60;99.90
31809;DHT22;18379;48.208;-1.518;2023-04-03T07:02:04;4.60;99.90
31809;DHT22;18379;48.208;-1.518;2023-04-03T07:07:05;4.80;99.90
31809;DHT22;18379;48.208;-1.518;2023-04-03T07:12:06;4.80;99.90
31809;DHT22;18379;48.208;-1.518;2023-04-03T07:17:09;4.80;99.90
31809;DHT22;18379;48.208;-1.518;2023-04-03T07:22:10;4.80;99.90
31809;DHT22;18379;48.208;-1.518;2023-04-03T07:27:11;5.00;99.90
31809;DHT22;18379;48.208;-1.518;2023-04-03T07:32:13;5.20;99.90
31809;DHT22;18379;48.208;-1.518;2023-04-03T07:37:13;5.30;99.90
31809;DHT22;18379;48.208;-1.518;2023-04-03T07:42:15;5.30;99.90
31809;DHT22;18379;48.208;-1.518;2023-04-03T07:47:15;5.30;99.90
31809;DHT22;18379;48.208;-1.518;2023-04-03T07:52:18;5.40;99.90
31809;DHT22;18379;48.208;-1.518;2023-04-03T07:57:19;5.60;99.90
31809;DHT22;18379;48.208;-1.518;2023-04-03T08:02:23;5.70;99.90
31809;DHT22;18379;48.208;-1.518;2023-04-03T08:07:24;5.90;99.90
31809;DHT22;18379;48.208;-1.518;2023-04-03T08:12:25;5.90;99.90
31809;DHT22;18379;48.208;-1.518;2023-04-03T08:17:29;5.80;99.90
31809;DHT22;18379;48.208;-1.518;2023-04-03T08:22:30;5.90;99.90
31809;DHT22;18379;48.208;-1.518;2023-04-03T08:27:31;6.10;99.90
31809;DHT22;18379;48.208;-1.518;2023-04-03T08:32:33;6.00;99.90
31809;DHT22;18379;48.208;-1.518;2023-04-03T08:37:36;5.80;99.90
31809;DHT22;18379;48.208;-1.518;2023-04-03T08:48:05;5.90;99.90
31809;DHT22;18379;48.208;-1.518;2023-04-03T08:53:26;5.90;99.90
31809;DHT22;18379;48.208;-1.518;2023-04-03T08:58:45;6.00;99.90
31809;DHT22;18379;48.208;-1.518;2023-04-03T09:03:47;6.00;99.90
31809;DHT22;18379;48.208;-1.518;2023-04-03T09:08:53;6.50;99.90
31809;DHT22;18379;48.208;-1.518;2023-04-03T09:19:41;6.30;99.90
31809;DHT22;18379;48.208;-1.518;2023-04-03T09:24:47;6.20;99.90
31809;DHT22;18379;48.208;-1.518;2023-04-03T09:29:56;6.00;99.90
31809;DHT22;18379;48.208;-1.518;2023-04-03T09:35:03;6.10;99.90
31809;DHT22;18379;48.208;-1.518;2023-04-03T09:40:05;6.40;99.90
31809;DHT22;18379;48.208;-1.518;2023-04-03T09:45:26;6.80;99.90
31809;DHT22;18379;48.208;-1.518;2023-04-03T09:50:27;7.20;99.90
31809;DHT22;18379;48.208;-1.518;2023-04-03T09:55:29;7.10;99.90
31809;DHT22;18379;48.208;-1.518;2023-04-03T10:00:36;7.30;99.90
31809;DHT22;18379;48.208;-1.518;2023-04-03T10:05:40;7.50;99.90
31809;DHT22;18379;48.208;-1.518;2023-04-03T10:10:42;7.60;99.90
31809;DHT22;18379;48.208;-1.518;2023-04-03T10:15:47;8.20;99.90
31809;DHT22;18379;48.208;-1.518;2023-04-03T10:20:51;8.10;99.90
31809;DHT22;18379;48.208;-1.518;2023-04-03T10:47:18;7.60;99.90
31809;DHT22;18379;48.208;-1.518;2023-04-03T10:52:46;7.80;99.90
31809;DHT22;18379;48.208;-1.518;2023-04-03T10:57:49;7.70;99.90
31809;DHT22;18379;48.208;-1.518;2023-04-03T11:02:58;8.10;99.90
31809;DHT22;18379;48.208;-1.518;2023-04-03T11:08:15;9.10;99.90
31809;DHT22;18379;48.208;-1.518;2023-04-03T11:13:22;9.70;99.90
31809;DHT22;18379;48.208;-1.518;2023-04-03T11:18:47;9.50;99.90
31809;DHT22;18379;48.208;-1.518;2023-04-03T11:23:51;9.60;99.90
31809;DHT22;18379;48.208;-1.518;2023-04-03T11:28:56;10.40;99.90
31809;DHT22;18379;48.208;-1.518;2023-04-03T11:50:40;10.60;99.90
31809;DHT22;18379;48.208;-1.518;2023-04-03T12:00:53;11.40;99.90
31809;DHT22;18379;48.208;-1.518;2023-04-03T12:05:57;11.20;99.90
31809;DHT22;18379;48.208;-1.518;2023-04-03T12:38:20;11.70;99.90
31809;DHT22;18379;48.208;-1.518;2023-04-03T12:47:54;11.90;99.90
31809;DHT22;18379;48.208;-1.518;2023-04-03T12:53:04;11.90;99.90
31809;DHT22;18379;48.208;-1.518;2023-04-03T12:58:25;11.80;99.90
31809;DHT22;18379;48.208;-1.518;2023-04-03T13:03:27;11.90;99.90
31809;DHT22;18379;48.208;-1.518;2023-04-03T13:08:28;12.00;99.90
31809;DHT22;18379;48.208;-1.518;2023-04-03T13:13:29;11.80;99.90
31809;DHT22;18379;48.208;-1.518;2023-04-03T13:18:34;12.30;99.90
31809;DHT22;18379;48.208;-1.518;2023-04-03T13:23:39;13.30;99.90
31809;DHT22;18379;48.208;-1.518;2023-04-03T13:28:41;13.10;99.90
31809;DHT22;18379;48.208;-1.518;2023-04-03T13:34:35;12.80;99.90
31809;DHT22;18379;48.208;-1.518;2023-04-03T13:49:39;14.00;99.90
31809;DHT22;18379;48.208;-1.518;2023-04-03T13:54:40;15.10;99.90
31809;DHT22;18379;48.208;-1.518;2023-04-03T13:59:41;15.60;99.90
31809;DHT22;18379;48.208;-1.518;2023-04-03T14:09:44;14.70;99.90
31809;DHT22;18379;48.208;-1.518;2023-04-03T14:14:45;15.30;99.90
31809;DHT22;18379;48.208;-1.518;2023-04-03T14:19:48;15.30;99.90
31809;DHT22;18379;48.208;-1.518;2023-04-03T14:24:50;15.20;99.90
31809;DHT22;18379;48.208;-1.518;2023-04-03T14:29:53;16.00;99.90
31809;DHT22;18379;48.208;-1.518;2023-04-03T14:34:54;15.90;99.90
31809;DHT22;18379;48.208;-1.518;2023-04-03T14:39:57;16.80;99.90
31809;DHT22;18379;48.208;-1.518;2023-04-03T14:44:59;17.00;99.90
31809;DHT22;18379;48.208;-1.518;2023-04-03T14:50:02;16.80;99.90
31809;DHT22;18379;48.208;-1.518;2023-04-03T14:55:05;16.90;99.90
31809;DHT22;18379;48.208;-1.518;2023-04-03T15:00:16;17.50;99.90
31809;DHT22;18379;48.208;-1.518;2023-04-03T15:05:17;18.10;99.90
31809;DHT22;18379;48.208;-1.518;2023-04-03T15:10:23;17.90;99.90
31809;DHT22;18379;48.208;-1.518;2023-04-03T15:15:28;18.20;99.90
31809;DHT22;18379;48.208;-1.518;2023-04-03T15:20:30;17.60;99.90
31809;DHT22;18379;48.208;-1.518;2023-04-03T15:25:32;17.70;99.90
31809;DHT22;18379;48.208;-1.518;2023-04-03T15:30:36;18.30;99.90
31809;DHT22;18379;48.208;-1.518;2023-04-03T15:35:39;18.90;99.90
31809;DHT22;18379;48.208;-1.518;2023-04-03T15:40:40;19.60;99.90
31809;DHT22;18379;48.208;-1.518;2023-04-03T15:45:43;19.00;99.90
31809;DHT22;18379;48.208;-1.518;2023-04-03T15:50:44;18.40;99.90
31809;DHT22;18379;48.208;-1.518;2023-04-03T15:55:45;19.50;99.90
31809;DHT22;18379;48.208;-1.518;2023-04-03T16:00:46;19.60;99.90
31809;DHT22;18379;48.208;-1.518;2023-04-03T16:05:47;19.30;99.90
31809;DHT22;18379;48.208;-1.518;2023-04-03T16:10:48;19.50;99.20
31809;DHT22;18379;48.208;-1.518;2023-04-03T16:15:49;19.50;97.60
31809;DHT22;18379;48.208;-1.518;2023-04-03T16:20:50;18.90;98.60
31809;DHT22;18379;48.208;-1.518;2023-04-03T16:25:51;18.30;99.00
31809;DHT22;18379;48.208;-1.518;2023-04-03T16:30:55;18.30;99.90
31809;DHT22;18379;48.208;-1.518;2023-04-03T16:35:55;17.80;98.50
31809;DHT22;18379;48.208;-1.518;2023-04-03T16:40:56;18.60;99.20
31809;DHT22;18379;48.208;-1.518;2023-04-03T16:46:00;18.10;98.90
31809;DHT22;18379;48.208;-1.518;2023-04-03T16:51:03;18.60;99.90
31809;DHT22;18379;48.208;-1.518;2023-04-03T16:56:04;19.40;98.00
31809;DHT22;18379;48.208;-1.518;2023-04-03T17:01:13;18.60;95.70
31809;DHT22;18379;48.208;-1.518;2023-04-03T17:06:21;18.50;97.20
31809;DHT22;18379;48.208;-1.518;2023-04-03T17:11:27;17.80;96.70
31809;DHT22;18379;48.208;-1.518;2023-04-03T17:16:29;17.60;98.90
31809;DHT22;18379;48.208;-1.518;2023-04-03T17:21:33;17.40;96.20
31809;DHT22;18379;48.208;-1.518;2023-04-03T17:26:34;16.90;96.70
31809;DHT22;18379;48.208;-1.518;2023-04-03T17:31:37;15.70;98.80
31809;DHT22;18379;48.208;-1.518;2023-04-03T17:36:38;14.70;99.90
31809;DHT22;18379;48.208;-1.518;2023-04-03T17:41:39;13.90;99.90
31809;DHT22;18379;48.208;-1.518;2023-04-03T17:46:40;13.40;99.90
31809;DHT22;18379;48.208;-1.518;2023-04-03T17:51:41;13.20;99.90
31809;DHT22;18379;48.208;-1.518;2023-04-03T17:56:42;13.00;99.90
31809;DHT22;18379;48.208;-1.518;2023-04-03T18:01:47;12.80;99.90
31809;DHT22;18379;48.208;-1.518;2023-04-03T18:06:50;12.80;99.90
31809;DHT22;18379;48.208;-1.518;2023-04-03T18:11:52;12.60;99.90
31809;DHT22;18379;48.208;-1.518;2023-04-03T18:16:53;12.30;99.90
31809;DHT22;18379;48.208;-1.518;2023-04-03T18:22:01;12.30;99.90
31809;DHT22;18379;48.208;-1.518;2023-04-03T18:27:08;12.10;99.90
31809;DHT22;18379;48.208;-1.518;2023-04-03T18:32:12;12.00;99.90
31809;DHT22;18379;48.208;-1.518;2023-04-03T18:37:14;11.90;99.90
31809;DHT22;18379;48.208;-1.518;2023-04-03T18:42:18;11.70;99.90
31809;DHT22;18379;48.208;-1.518;2023-04-03T18:47:20;11.60;99.90
31809;DHT22;18379;48.208;-1.518;2023-04-03T18:52:21;11.40;99.90
31809;DHT22;18379;48.208;-1.518;2023-04-03T18:57:24;11.20;99.90
31809;DHT22;18379;48.208;-1.518;2023-04-03T19:02:29;11.00;99.90
31809;DHT22;18379;48.208;-1.518;2023-04-03T19:07:30;10.90;99.90
31809;DHT22;18379;48.208;-1.518;2023-04-03T19:12:31;10.70;99.90
31809;DHT22;18379;48.208;-1.518;2023-04-03T19:17:32;10.70;99.90
31809;DHT22;18379;48.208;-1.518;2023-04-03T19:22:33;10.60;99.90
31809;DHT22;18379;48.208;-1.518;2023-04-03T19:27:35;10.50;99.90
31809;DHT22;18379;48.208;-1.518;2023-04-03T19:32:36;10.30;99.90
31809;DHT22;18379;48.208;-1.518;2023-04-03T19:37:37;10.20;99.90
31809;DHT22;18379;48.208;-1.518;2023-04-03T19:42:38;10.20;99.90
31809;DHT22;18379;48.208;-1.518;2023-04-03T19:47:42;10.10;99.90
31809;DHT22;18379;48.208;-1.518;2023-04-03T19:52:44;9.90;99.90
31809;DHT22;18379;48.208;-1.518;2023-04-03T19:57:45;9.90;99.90
31809;DHT22;18379;48.208;-1.518;2023-04-03T20:02:46;9.80;99.90
31809;DHT22;18379;48.208;-1.518;2023-04-03T20:07:47;9.80;99.90
31809;DHT22;18379;48.208;-1.518;2023-04-03T20:12:48;9.70;99.90
31809;DHT22;18379;48.208;-1.518;2023-04-03T20:17:49;9.60;99.90
31809;DHT22;18379;48.208;-1.518;2023-04-03T20:22:50;9.50;99.90
31809;DHT22;18379;48.208;-1.518;2023-04-03T20:27:53;9.40;99.90
31809;DHT22;18379;48.208;-1.518;2023-04-03T20:32:54;9.40;99.90
31809;DHT22;18379;48.208;-1.518;2023-04-03T20:37:55;9.30;99.90
31809;DHT22;18379;48.208;-1.518;2023-04-03T20:42:57;9.20;99.90
31809;DHT22;18379;48.208;-1.518;2023-04-03T20:47:59;9.10;99.90
31809;DHT22;18379;48.208;-1.518;2023-04-03T20:53:00;9.00;99.90
31809;DHT22;18379;48.208;-1.518;2023-04-03T20:58:01;8.90;99.90
31809;DHT22;18379;48.208;-1.518;2023-04-03T21:03:03;8.90;99.90
31809;DHT22;18379;48.208;-1.518;2023-04-03T21:19:20;8.60;99.90
31809;DHT22;18379;48.208;-1.518;2023-04-03T21:24:21;8.60;99.90
31809;DHT22;18379;48.208;-1.518;2023-04-03T21:29:23;8.60;99.90
31809;DHT22;18379;48.208;-1.518;2023-04-03T21:34:25;8.50;99.90
31809;DHT22;18379;48.208;-1.518;2023-04-03T21:39:27;8.40;99.90
31809;DHT22;18379;48.208;-1.518;2023-04-03T21:44:29;8.40;99.90
31809;DHT22;18379;48.208;-1.518;2023-04-03T21:49:29;8.30;99.90
31809;DHT22;18379;48.208;-1.518;2023-04-03T21:54:30;8.20;99.90
31809;DHT22;18379;48.208;-1.518;2023-04-03T21:59:31;8.20;99.90
31809;DHT22;18379;48.208;-1.518;2023-04-03T22:04:32;8.10;99.90
31809;DHT22;18379;48.208;-1.518;2023-04-03T22:09:32;8.10;99.90
31809;DHT22;18379;48.208;-1.518;2023-04-03T22:14:33;7.90;99.90
31809;DHT22;18379;48.208;-1.518;2023-04-03T22:19:34;7.90;99.90
31809;DHT22;18379;48.208;-1.518;2023-04-03T22:24:35;7.80;99.90
31809;DHT22;18379;48.208;-1.518;2023-04-03T22:29:36;7.70;99.90
31809;DHT22;18379;48.208;-1.518;2023-04-03T22:34:37;7.70;99.90
31809;DHT22;18379;48.208;-1.518;2023-04-03T22:39:39;7.70;99.90
31809;DHT22;18379;48.208;-1.518;2023-04-03T22:44:39;7.60;99.90
31809;DHT22;18379;48.208;-1.518;2023-04-03T22:49:40;7.50;99.90
31809;DHT22;18379;48.208;-1.518;2023-04-03T22:54:41;7.50;99.90
31809;DHT22;18379;48.208;-1.518;2023-04-03T22:59:42;7.40;99.90
31809;DHT22;18379;48.208;-1.518;2023-04-03T23:04:42;7.30;99.90
31809;DHT22;18379;48.208;-1.518;2023-04-03T23:09:43;7.30;99.90
31809;DHT22;18379;48.208;-1.518;2023-04-03T23:14:44;7.20;99.90
31809;DHT22;18379;48.208;-1.518;2023-04-03T23:19:45;7.20;99.90
31809;DHT22;18379;48.208;-1.518;2023-04-03T23:24:46;7.10;99.90
31809;DHT22;18379;48.208;-1.518;2023-04-03T23:29:47;7.00;99.90
31809;DHT22;18379;48.208;-1.518;2023-04-03T23:34:48;7.00;99.90
31809;DHT22;18379;48.208;-1.518;2023-04-03T23:39:48;6.90;99.90
31809;DHT22;18379;48.208;-1.518;2023-04-03T23:44:49;6.90;99.90
31809;DHT22;18379;48.208;-1.518;2023-04-03T23:49:50;6.80;99.90
31809;DHT22;18379;48.208;-1.518;2023-04-03T23:54:51;6.80;99.90
31809;DHT22;18379;48.208;-1.518;2023-04-03T23:59:52;6.80;99.90
